Nashville, Tennessee
Traffic Map
Current Weather Conditions
Nashville, Tennessee
Overcast
Overcast
61°
Feels Like: 61°
Wind Chill: 61° Ceiling: 800
Heat Index: 61° Visibility: 10mi
Dew Point: 58° Wind: 15mph
Humidity: 90% Direction: 310° (NW)
Pressure: 29.44in Gusts: 22mph
Raw Report DataKBNA 241753Z 31013G19KT 10SM BKN008 BKN012 OVC075 16/14 A2944 RMK AO2 PK WND 28027/1705 WSHFT 1700 LTG DSNT NE AND E RAB02E49 SLP966 P0007 60009 T01610144 10194 20150 55000
Traffic Incident Summary
Active as of:
Severity:
Category:
InformationThere was an issue retrieving the traffic information for this location. Please try a different location or try again shortly.
Advertisements
Track Severe Weather on mobile